Incline Creek, Nevada Weather observations

Data are for observation ending at time listed.
 Day   Time    Ave.   Ave.  Ave.  Vector   Max.   Stn.    Total    Solar   Ave.   Snow 
  of    of     Air    Rel.  Wind   Wind    Wind   Baro.  Precip.   Rad.    Soil   Depth
Year   Day     Temp.  Hum.  Speed  Dir.    Gust   Pres.                    Temp.       
2016   (PST)    F      %     mph   deg.    mph     mb.     in.     W/m2     F      in. 
---------------------------------------------------------------------------------------  
  41   21:50   33.5    67    2.8    27      4.6   999.0    0.00       0    999.0   83.9
  41   22:00   33.4    67    2.3    13      3.5   999.0    0.00       0    999.0   83.9
  41   22:10   33.5    66    2.3    33      3.7   999.0    0.00       0    999.0   83.9
  41   22:20   33.0    68    2.3    37      3.8   999.0    0.00       0    999.0   83.9
  41   22:30   33.0    67    2.3    16      3.9   999.0    0.00       0    999.0   83.9
  41   22:40   32.9    68    2.2    22      3.9   999.0    0.00       0    999.0   83.9
  41   22:50   33.1    67    3.2    17      4.8   999.0    0.00       0    999.0   83.9
  41   23:00   32.7    68    1.8    24      3.5   999.0    0.00       0    999.0   83.9
  41   23:10   32.9    66    1.8    17      2.6   999.0    0.00       0    999.0   83.9
  41   23:20   32.7    68    2.5    24      4.8   999.0    0.00       0    999.0   83.9
  41   23:30   32.7    68    2.4    37      3.4   999.0    0.00       0    999.0   83.9
  41   23:40   32.1    70    1.9    28      2.9   999.0    0.00       0    999.0   83.9
  41   23:50   31.9    70    1.7    28      2.3   999.0    0.00       0    999.0   83.9
  42    0:00   32.1    68    1.9    18      2.7   999.0    0.00       0    999.0   83.9
  42    0:10   32.0    69    2.5    29      3.9   999.0    0.00       0    999.0   83.9
  42    0:20   31.5    70    2.2    36      3.3   999.0    0.00       0    999.0   83.9
  42    0:30   31.3    71    1.8    28      2.8   999.0    0.00       0    999.0   83.9
  42    0:40   31.3    70    1.8     7      4.1   999.0    0.00       0    999.0   83.9
  42    0:50   32.0    67    2.1    26      3.9   999.0    0.00       0    999.0   83.9
  42    1:00   31.3    70    1.9    19      3.1   999.0    0.00       0    999.0   83.9
  42    1:10   31.5    68    2.1    16      3.2   999.0    0.00       0    999.0   83.9
  42    1:20   30.8    71    1.8    18      2.7   999.0    0.00       0    999.0   83.9
  42    1:30   31.1    69    2.2    31      3.4   999.0    0.00       0    999.0   83.9
  42    1:40   30.8    71    2.2    36      3.1   999.0    0.00       0    999.0   83.9
  42    1:50   30.8    71    1.9    34      2.6   999.0    0.00       0    999.0   83.9
  42    2:00   30.8    72    1.9    37      2.6   999.0    0.00       0    999.0   83.9
  42    2:10   30.9    72    1.7    21      2.5   999.0    0.00       0    999.0   83.9
  42    2:20   30.9    72    1.7    24      2.4   999.0    0.00       0    999.0   83.9
  42    2:30   30.7    72    1.8    18      2.4   999.0    0.00       0    999.0   83.9
  42    2:40   30.5    73    2.0    35      2.9   999.0    0.00       0    999.0   83.9
  42    2:50   30.7    72    1.9    23      3.1   999.0    0.00       0    999.0   83.9
  42    3:00   31.2    71    1.6    11      2.7   999.0    0.00       0    999.0   83.9
  42    3:10   31.4    72    1.9   356      2.9   999.0    0.00       0    999.0   83.9
  42    3:20   30.6    74    2.0    28      2.8   999.0    0.00       0    999.0   83.9
  42    3:30   30.7    73    1.7    17      2.9   999.0    0.00       0    999.0   83.9
  42    3:40   31.0    73    1.8     1      2.9   999.0    0.00       0    999.0   83.9
  42    3:50   30.5    75    2.3    37      3.1   999.0    0.00       0    999.0   83.9
  42    4:00   30.5    74    1.7    14      2.9   999.0    0.00       0    999.0   83.9
  42    4:10   31.0    72    2.1     6      3.6   999.0    0.00       0    999.0   83.9
  42    4:20   30.8    72    2.4   346      4.3   999.0    0.00       0    999.0   83.9
  42    4:30   30.4    73    2.0    29      2.5   999.0    0.00       0    999.0   83.9
  42    4:40   30.0    74    2.0    16      3.2   999.0    0.00       0    999.0   83.9
  42    4:50   29.9    74    1.8    29      2.9   999.0    0.00       0    999.0   83.9
  42    5:00   30.0    73    2.0    25      3.9   999.0    0.00       0    999.0   83.9
  42    5:10   30.1    72    1.8   348      3.2   999.0    0.00       0    999.0   83.9
  42    5:20   30.1    72    2.5    19      3.7   999.0    0.00       0    999.0   83.9
  42    5:30   29.6    73    2.6    26      4.1   999.0    0.00       0    999.0   83.9
  42    5:40   30.4    69    2.2   352      4.2   999.0    0.00       0    999.0   83.9
  42    5:50   30.3    70    2.1    29      3.7   999.0    0.00       0    999.0   83.9
  42    6:00   30.4    68    1.9    13      2.5   999.0    0.00       0    999.0   83.9
  42    6:10   30.3    69    2.2    12      3.9   999.0    0.00       0    999.0   83.9
  42    6:20   30.0    71    2.7    19      4.8   999.0    0.00       0    999.0   83.9
  42    6:30   29.6    71    2.3    35      3.6   999.0    0.00       0    999.0   83.9
  42    6:40   29.5    71    2.0    27      2.8   999.0    0.00       0    999.0   83.9
  42    6:50   29.5    71    1.9    10      2.4   999.0    0.00       1    999.0   83.9
  42    7:00   29.5    70    1.6     7      2.3   999.0    0.00       4    999.0   83.9
  42    7:10   29.4    70    1.6     7      2.2   999.0    0.00       9    999.0   83.9
  42    7:20   29.5    70    1.8   359      2.4   999.0    0.00      18    999.0   83.9
  42    7:30   29.6    70    1.8    25      2.5   999.0    0.00      33    999.0   83.9
  42    7:40   29.7    70    1.7    22      2.6   999.0    0.00      44    999.0   83.9
  42    7:50   30.2    70    1.6    14      2.4   999.0    0.00      49    999.0   83.9
  42    8:00   30.4    70    2.1    36      2.7   999.0    0.00      54    999.0   83.9
  42    8:10   30.7    70    2.1    38      3.3   999.0    0.00      66    999.0   83.9
  42    8:20   31.4    68    1.9    34      2.5   999.0    0.00      90    999.0   83.9
  42    8:30   32.5    66    0.7    14      2.4   999.0    0.00     142    999.0   83.9
  42    8:40   34.5    62    1.2    25      2.3   999.0    0.00     259    999.0   83.9
  42    8:50   37.6    68    0.6    44      2.6   999.0    0.00     302    999.0   83.9
  42    9:00   38.6    62    0.9   120      1.8   999.0    0.00     252    999.0   83.9
  42    9:10   39.5    60    0.1   116      1.0   999.0    0.00     279    999.0   83.9
  42    9:20   40.5    58    0.3    30      1.4   999.0    0.00     294    999.0   83.9
  42    9:30   41.0    57    0.6    26      1.7   999.0    0.00     360    999.0   83.9
  42    9:40   43.2    53    0.1    25      0.5   999.0    0.00     335    999.0   83.9
  42    9:50   44.3    52    1.0   161      2.6   999.0    0.00     430    999.0   83.9
  42   10:00   45.7    51    1.4   160      3.2   999.0    0.00     450    999.0   83.9
  42   10:10   45.0    58    3.0   154      5.1   999.0    0.00     461    999.0   83.9
  42   10:20   45.2    60    1.5   149      3.2   999.0    0.00     389    999.0   83.9
  42   10:30   47.6    56    0.2    96      0.9   999.0    0.00     423    999.0   83.9
  42   10:40   50.6    48    0.6   160      1.8   999.0    0.00     546    999.0   83.9
  42   10:50   52.0    39    1.6   165      3.0   999.0    0.00     582    999.0   83.9
  42   11:00   50.6    49    2.7   174      4.2   999.0    0.00     609    999.0   83.9
  42   11:10   50.2    54    2.3   171      4.3   999.0    0.00     552    999.0   83.9
  42   11:20   50.1    55    3.2   170      5.2   999.0    0.00     557    999.0   83.9
  42   11:30   48.3    59    2.9   166      5.7   999.0    0.00     308    999.0   83.9
  42   11:40   47.5    60    1.6   164      4.2   999.0    0.00     286    999.0   83.9
  42   11:50   48.5    57    0.3   136      1.1   999.0    0.00     333    999.0   83.9
  42   12:00   50.5    44    1.2   169      2.9   999.0    0.00     401    999.0   83.9
  42   12:10   50.8    46    1.0   156      3.9   999.0    0.00     352    999.0   83.9
  42   12:20   48.8    58    2.2   178      3.6   999.0    0.00     343    999.0   83.9
  42   12:30   47.5    62    2.4   183      3.2   999.0    0.00     351    999.0   83.9
  42   12:40   48.4    60    0.5   187      1.9   999.0    0.00     322    999.0   83.9
  42   12:50   50.7    52    0.2   152      1.1   999.0    0.00     317    999.0   83.9
  42   13:00   51.2    35    0.9   166      1.9   999.0    0.00     334    999.0   83.9
  42   13:10   51.2    34    0.8   156      2.0   999.0    0.00     288    999.0   83.9
  42   13:20   50.9    37    0.3   166      1.2   999.0    0.00     263    999.0   83.9
  42   13:30   50.8    38    0.5   133      1.6   999.0    0.00     297    999.0   83.9
  42   13:40   50.7    43    0.3   186      1.4   999.0    0.00     288    999.0   83.9
  42   13:50   50.6    46    0.0    30      0.5   999.0    0.00     272    999.0   83.9
  42   14:00   51.7    41    0.4   164      1.7   999.0    0.00     292    999.0   83.9
  42   14:10   50.1    54    0.8   179      2.1   999.0    0.00     270    999.0   83.9
  42   14:20   49.8    47    0.3   201      1.7   999.0    0.00     208    999.0   83.9
  42   14:30   49.0    49    0.4     8      1.8   999.0    0.00     229    999.0   83.9
  42   14:40   49.1    49    0.3     6      1.2   999.0    0.00     306    999.0   83.9
  42   14:50   49.2    48    0.3     5      1.3   999.0    0.00     284    999.0   83.9
  42   15:00   50.1    44    0.1     2      1.1   999.0    0.00     258    999.0   83.9
  42   15:10   50.3    43    0.2    10      1.1   999.0    0.00     262    999.0   83.9
  42   15:20   50.4    43    0.2    12      1.3   999.0    0.00     197    999.0   83.9
  42   15:30   49.0    44    0.7    12      2.2   999.0    0.00     161    999.0   83.9
  42   15:40   47.9    47    0.5   354      2.3   999.0    0.00     145    999.0   83.9
  42   15:50   46.1    51    0.9   330      2.7   999.0    0.00     137    999.0   83.9
  42   16:00   45.2    53    1.1   358      2.1   999.0    0.00     120    999.0   83.9
  42   16:10   44.2    54    1.6   330      2.7   999.0    0.00     101    999.0   83.9
  42   16:20   44.0    54    1.8   327      2.5   999.0    0.00      90    999.0   83.9
  42   16:30   43.7    54    1.7   331      2.5   999.0    0.00      75    999.0   83.9
  42   16:40   43.3    54    1.9   323      3.0   999.0    0.00      75    999.0   83.9
  42   16:50   42.6    56    1.7   332      2.7   999.0    0.00      53    999.0   83.9
  42   17:00   41.9    58    1.9   339      3.2   999.0    0.00      44    999.0   83.9
  42   17:10   41.8    57    2.3   325      3.2   999.0    0.00      37    999.0   83.9
  42   17:20   41.0    60    1.7   345      3.0   999.0    0.00      22    999.0   83.9
  42   17:30   40.0    62    1.7   356      3.0   999.0    0.00       8    999.0   83.9
  42   17:40   38.9    65    1.6   347      3.2   999.0    0.00       2    999.0   83.9
  42   17:50   37.9    67    1.9    14      4.1   999.0    0.00       0    999.0   83.9
  42   18:00   37.3    69    2.4    21      4.1   999.0    0.00       0    999.0   83.9
  42   18:10   36.5    70    2.0    25      3.0   999.0    0.00       0    999.0   83.9
  42   18:20   36.5    70    2.8    21      4.2   999.0    0.00       0    999.0   83.9
  42   18:30   36.1    70    2.0    19      3.7   999.0    0.00       0    999.0   83.9
  42   18:40   35.8    70    2.1    12      3.1   999.0    0.00       0    999.0   83.9
  42   18:50   35.4    70    1.8    22      3.0   999.0    0.00       0    999.0   83.9
  42   19:00   35.0    71    1.9    26      2.9   999.0    0.00       0    999.0   83.9
  42   19:10   34.7    72    2.3    22      3.6   999.0    0.00       0    999.0   83.9
  42   19:20   34.4    72    2.4    33      3.6   999.0    0.00       0    999.0   83.9
  42   19:30   34.1    72    1.9    36      2.8   999.0    0.00       0    999.0   83.9
  42   19:40   34.1    72    2.2    27      4.3   999.0    0.00       0    999.0   83.9
  42   19:50   33.8    73    2.2    34      3.6   999.0    0.00       0    999.0   83.9
  42   20:00   33.6    73    2.1    34      3.3   999.0    0.00       0    999.0   83.9
  42   20:10   33.7    72    2.3    22      4.3   999.0    0.00       0    999.0   83.9
  42   20:20   33.5    72    1.9    33      3.1   999.0    0.00       0    999.0   83.9
  42   20:30   33.8    72    2.2    20      4.7   999.0    0.00       0    999.0   83.9
  42   20:40   33.6    72    2.1    22      4.0   999.0    0.00       0    999.0   83.9
  42   20:50   34.1    70    1.8    24      3.3   999.0    0.00       0    999.0   83.9
  42   21:00   34.1    70    2.2    10      3.6   999.0    0.00       0    999.0   83.9
  42   21:10   34.5    68    2.2    14      5.0   999.0    0.00       0    999.0   83.9
  42   21:20   34.9    66    2.7     2      5.2   999.0    0.00       0    999.0   83.9
  42   21:30   34.6    67    2.3    17      3.5   999.0    0.00       0    999.0   83.9
  42   21:40   34.3    68    2.4   356      4.1   999.0    0.00       0    999.0   83.9

Return to Incline Creek graphs page.


Western Regional Climate Center,wrcc@dri.edu